Time;durP1;ratioP1;P1;durP2;ratioP2;P2;SDS_P1;SDS_P2;PMS_P1;PMS_P2;Temp;Humidity;BMP_temperature;BMP_pressure;BME280_temperature;BME280_humidity;BME280_pressure;Samples;Min_cycle;Max_cycle;Signal;HPM_P1;HPM_P2
2023/08/23 00:00:46;;;;;;;7.25;6.28;;;;;;;22.83;72.66;96179.19;2066583;28;20521;-59
2023/08/23 00:01:47;;;;;;;9.45;6.07;;;;;;;22.84;72.75;96175.56;2057477;28;20070;-59
2023/08/23 00:02:48;;;;;;;8.38;6.05;;;;;;;22.82;72.89;96185.44;2057234;28;20069;-59
2023/08/23 00:03:51;;;;;;;7.95;6.10;;;;;;;22.82;73.13;96180.16;2066295;28;20501;-59
2023/08/23 00:04:52;;;;;;;12.73;6.38;;;;;;;22.80;72.96;96184.75;2066180;28;20054;-59
2023/08/23 00:05:53;;;;;;;10.43;6.05;;;;;;;22.79;72.77;96183.09;2066160;28;20415;-58
2023/08/23 00:06:54;;;;;;;9.13;5.85;;;;;;;22.80;73.30;96184.75;2066302;28;20054;-59
2023/08/23 00:07:55;;;;;;;7.22;5.63;;;;;;;22.77;72.91;96185.03;2065986;28;20058;-61
2023/08/23 00:08:57;;;;;;;9.70;5.90;;;;;;;22.80;72.55;96182.09;2066150;28;20475;-59
2023/08/23 00:09:58;;;;;;;10.45;6.13;;;;;;;22.76;73.59;96175.44;2066099;28;20058;-59
2023/08/23 00:10:59;;;;;;;9.48;6.05;;;;;;;22.76;73.79;96172.78;2065915;28;20050;-59
2023/08/23 00:12:00;;;;;;;8.50;5.75;;;;;;;22.76;73.87;96180.72;2065620;28;20402;-59
2023/08/23 00:13:01;;;;;;;9.27;5.85;;;;;;;22.79;73.92;96183.09;2066481;28;20062;-59
2023/08/23 00:14:02;;;;;;;7.10;5.38;;;;;;;22.78;73.73;96182.25;2065908;28;20061;-59
2023/08/23 00:15:04;;;;;;;9.25;6.32;;;;;;;22.75;73.78;96173.75;2066095;28;20050;-59
2023/08/23 00:16:05;;;;;;;9.93;5.93;;;;;;;22.72;74.46;96172.25;2066466;28;20526;-58
2023/08/23 00:17:10;;;;;;;9.30;6.20;;;;;;;22.71;74.19;96173.22;2066213;28;20050;-58
2023/08/23 00:18:11;;;;;;;8.18;5.43;;;;;;;22.73;74.86;96175.72;2065973;28;20054;-58
2023/08/23 00:19:12;;;;;;;11.45;6.57;;;;;;;22.71;75.05;96180.31;2057262;28;20066;-59
2023/08/23 00:20:13;;;;;;;8.02;6.20;;;;;;;22.68;74.38;96176.97;2057524;28;20066;-59
2023/08/23 00:21:14;;;;;;;9.55;6.68;;;;;;;22.70;74.20;96181.31;2065308;28;20138;-59
2023/08/23 00:22:15;;;;;;;9.55;6.32;;;;;;;22.69;74.33;96177.81;2065968;28;20458;-59
2023/08/23 00:23:17;;;;;;;8.38;6.28;;;;;;;22.67;74.39;96185.91;2065476;28;20057;-59
2023/08/23 00:24:18;;;;;;;7.85;5.53;;;;;;;22.67;74.43;96182.44;2065777;28;20065;-59
2023/08/23 00:25:19;;;;;;;8.40;6.20;;;;;;;22.62;74.72;96185.50;2066273;28;20054;-59
2023/08/23 00:26:21;;;;;;;7.93;6.28;;;;;;;22.59;74.76;96177.84;2065984;28;20051;-59
2023/08/23 00:27:22;;;;;;;8.65;6.72;;;;;;;22.57;74.89;96178.97;2065962;28;20058;-59
2023/08/23 00:28:23;;;;;;;9.50;5.97;;;;;;;22.53;74.92;96178.38;2065936;28;20050;-59
2023/08/23 00:29:24;;;;;;;7.90;5.63;;;;;;;22.54;74.92;96180.09;2057879;28;20046;-59
2023/08/23 00:30:25;;;;;;;7.82;6.63;;;;;;;22.54;74.83;96180.09;2057420;28;20062;-59
2023/08/23 00:31:27;;;;;;;9.48;6.20;;;;;;;22.54;74.83;96169.50;2065331;28;20054;-59
2023/08/23 00:32:28;;;;;;;10.20;6.72;;;;;;;22.54;74.58;96172.16;2065616;28;20490;-58
2023/08/23 00:33:29;;;;;;;10.10;6.38;;;;;;;22.54;74.80;96177.44;2066057;28;20069;-59
2023/08/23 00:34:31;;;;;;;8.55;6.40;;;;;;;22.52;75.00;96174.09;2056982;28;20085;-59
2023/08/23 00:35:32;;;;;;;8.05;6.30;;;;;;;22.50;75.03;96169.91;2057561;28;20547;-59
2023/08/23 00:36:33;;;;;;;8.60;5.82;;;;;;;22.52;74.80;96179.38;2064920;28;20058;-58
2023/08/23 00:37:34;;;;;;;9.07;6.25;;;;;;;22.54;74.65;96172.16;2065735;28;20065;-59
2023/08/23 00:38:35;;;;;;;8.13;5.90;;;;;;;22.53;74.86;96175.75;2056529;28;20514;-59
2023/08/23 00:39:36;;;;;;;8.63;6.47;;;;;;;22.53;75.22;96181.03;2057376;28;20069;-59
2023/08/23 00:40:37;;;;;;;9.85;6.55;;;;;;;22.56;74.64;96182.56;2065339;28;20061;-59
2023/08/23 00:41:39;;;;;;;11.38;6.82;;;;;;;22.54;74.89;96182.72;2057567;28;20054;-59
2023/08/23 00:42:40;;;;;;;7.35;5.93;;;;;;;22.51;75.04;96179.50;2057373;28;20054;-58
2023/08/23 00:43:41;;;;;;;8.13;6.13;;;;;;;22.52;75.73;96178.56;2065280;28;20050;-59
2023/08/23 00:44:42;;;;;;;8.27;6.25;;;;;;;22.53;75.90;96177.56;2066018;28;20054;-59
2023/08/23 00:45:43;;;;;;;11.75;6.50;;;;;;;22.53;75.93;96175.75;2065907;28;20058;-59
2023/08/23 00:46:44;;;;;;;9.52;6.38;;;;;;;22.52;76.14;96168.78;2057325;28;20050;-59
2023/08/23 00:47:46;;;;;;;11.80;6.68;;;;;;;22.46;76.72;96172.84;2049690;28;20062;-58
2023/08/23 00:48:47;;;;;;;7.55;6.25;;;;;;;22.44;76.91;96172.16;2048914;28;20059;-59
2023/08/23 00:49:49;;;;;;;8.80;6.45;;;;;;;22.38;76.74;96172.72;2041454;29;20058;-59
2023/08/23 00:50:50;;;;;;;8.82;6.43;;;;;;;22.31;76.53;96166.31;2049589;28;20059;-59
2023/08/23 00:51:51;;;;;;;7.53;6.15;;;;;;;22.34;76.65;96170.50;2065585;28;20058;-59
2023/08/23 00:52:52;;;;;;;7.50;6.10;;;;;;;22.35;76.76;96170.34;2065267;28;20126;-59
2023/08/23 00:53:54;;;;;;;7.25;6.22;;;;;;;22.40;76.97;96177.84;2057237;28;20058;-59
2023/08/23 00:54:55;;;;;;;13.82;6.00;;;;;;;22.45;76.82;96178.25;2056895;28;20054;-59
2023/08/23 00:55:56;;;;;;;9.52;6.75;;;;;;;22.46;77.07;96175.50;2049350;29;20055;-59
2023/08/23 00:56:59;;;;;;;9.32;6.07;;;;;;;22.50;77.17;96181.31;2041354;28;20047;-59
2023/08/23 00:58:00;;;;;;;11.65;6.68;;;;;;;22.51;77.08;96172.44;2057498;28;20062;-58
2023/08/23 00:59:02;;;;;;;9.32;6.55;;;;;;;22.53;76.93;96173.09;2056938;28;20054;-59
2023/08/23 01:00:04;;;;;;;9.18;6.40;;;;;;;22.50;77.12;96168.09;2049197;29;20047;-58
2023/08/23 01:01:05;;;;;;;11.57;6.55;;;;;;;22.54;77.05;96164.19;2057072;28;20051;-58
2023/08/23 01:02:08;;;;;;;9.07;6.85;;;;;;;22.40;77.44;96160.19;2057206;28;20050;-59
2023/08/23 01:03:09;;;;;;;10.07;6.53;;;;;;;22.45;77.71;96165.03;2057220;28;20046;-58
2023/08/23 01:04:10;;;;;;;11.07;6.90;;;;;;;22.42;77.76;96165.31;2065880;28;20064;-59
2023/08/23 01:05:11;;;;;;;10.55;7.13;;;;;;;22.41;77.89;96174.25;2065403;28;20050;-58
2023/08/23 01:06:28;;;;;;;10.95;6.90;;;;;;;22.42;77.71;96187.31;2065743;28;20042;-58
2023/08/23 01:07:51;;;;;;;12.23;7.65;;;;;;;22.43;77.28;96182.88;2068714;28;20051;-58
2023/08/23 01:09:03;;;;;;;11.07;7.43;;;;;;;22.48;77.56;96185.09;2066093;28;20487;-59
2023/08/23 01:10:12;;;;;;;10.80;7.50;;;;;;;22.49;77.28;96184.13;2065368;28;20061;-58
2023/08/23 01:11:21;;;;;;;8.90;7.78;;;;;;;22.49;76.80;96189.44;2056918;28;20046;-58
2023/08/23 01:12:34;;;;;;;14.27;7.43;;;;;;;22.49;76.90;96184.97;2049918;28;20439;-58
2023/08/23 01:13:47;;;;;;;8.75;7.13;;;;;;;22.54;76.64;96180.09;2058703;28;20046;-58
2023/08/23 01:14:53;;;;;;;9.80;7.28;;;;;;;22.56;76.56;96179.91;2056925;28;20071;-58
2023/08/23 01:15:54;;;;;;;11.27;7.43;;;;;;;22.55;76.77;96173.81;2049827;28;20436;-58
2023/08/23 01:16:55;;;;;;;9.43;7.15;;;;;;;22.58;76.28;96173.50;2049399;28;20055;-58
2023/08/23 01:17:56;;;;;;;11.05;7.13;;;;;;;22.61;76.78;96175.03;2048554;29;20053;-58
2023/08/23 01:18:59;;;;;;;10.13;6.55;;;;;;;22.59;76.24;96169.91;2049185;28;20050;-59
2023/08/23 01:20:00;;;;;;;14.98;7.32;;;;;;;22.65;76.49;96179.91;2057442;28;20438;-58
2023/08/23 01:21:01;;;;;;;9.10;7.05;;;;;;;22.65;76.71;96177.28;2065141;28;20050;-59
2023/08/23 01:22:03;;;;;;;15.32;7.88;;;;;;;22.67;76.27;96182.44;2049142;29;20043;-59
2023/08/23 01:23:14;;;;;;;10.38;7.10;;;;;;;22.61;76.36;96170.59;2049275;28;20047;-59
2023/08/23 01:24:15;;;;;;;7.93;6.75;;;;;;;22.64;76.33;96174.75;2065685;28;20050;-58
2023/08/23 01:25:16;;;;;;;9.68;6.68;;;;;;;22.59;76.29;96183.13;2065325;28;20042;-58
2023/08/23 01:26:17;;;;;;;9.65;7.25;;;;;;;22.61;76.75;96177.69;2056647;28;20062;-59
2023/08/23 01:27:18;;;;;;;8.10;6.35;;;;;;;22.64;76.70;96172.97;2056455;28;20114;-59
2023/08/23 01:28:20;;;;;;;9.68;7.00;;;;;;;22.64;76.21;96174.75;2065584;28;20494;-58
2023/08/23 01:29:21;;;;;;;9.50;6.78;;;;;;;22.68;76.28;96179.63;2065755;28;20057;-59
2023/08/23 01:30:22;;;;;;;7.57;6.32;;;;;;;22.69;76.08;96177.81;2057175;28;20054;-58
2023/08/23 01:31:23;;;;;;;7.70;6.57;;;;;;;22.67;75.92;96177.97;2056571;28;20418;-58
2023/08/23 01:32:34;;;;;;;9.18;6.68;;;;;;;22.67;75.82;96183.25;2056680;28;20077;-59
2023/08/23 01:33:55;;;;;;;9.98;7.43;;;;;;;22.66;75.64;96186.03;2064705;28;20146;-58
2023/08/23 01:35:02;;;;;;;9.32;6.70;;;;;;;22.65;76.32;96185.22;2065300;28;20053;-58
2023/08/23 01:36:06;;;;;;;9.02;6.65;;;;;;;22.66;76.83;96188.69;2057193;28;20050;-58
2023/08/23 01:37:07;;;;;;;9.45;6.68;;;;;;;22.63;76.28;96189.81;2050080;28;20050;-58
2023/08/23 01:38:08;;;;;;;11.88;6.50;;;;;;;22.66;76.36;96196.63;2056489;28;20063;-58
2023/08/23 01:39:10;;;;;;;8.63;6.47;;;;;;;22.64;75.95;96195.94;2033477;29;20079;-58
2023/08/23 01:40:11;;;;;;;9.43;6.68;;;;;;;22.59;76.67;96199.03;2041334;28;20408;-58
2023/08/23 01:41:13;;;;;;;11.55;6.72;;;;;;;22.56;75.84;96195.81;2057071;28;20471;-58
2023/08/23 01:42:14;;;;;;;12.32;7.18;;;;;;;22.60;75.42;96199.84;2056933;28;20058;-58
2023/08/23 01:43:15;;;;;;;10.75;6.47;;;;;;;22.63;75.27;96195.09;2048986;29;20058;-58
2023/08/23 01:44:16;;;;;;;12.25;7.38;;;;;;;22.62;75.25;96193.44;2056968;28;20530;-57
2023/08/23 01:45:18;;;;;;;9.88;6.93;;;;;;;22.64;75.46;96199.44;2065733;28;20066;-57
2023/08/23 01:46:19;;;;;;;9.05;7.07;;;;;;;22.55;75.04;96189.69;2066287;28;20406;-57
2023/08/23 01:47:20;;;;;;;13.95;7.32;;;;;;;22.61;75.46;96205.00;2067048;28;20057;-57
2023/08/23 01:48:21;;;;;;;10.20;6.70;;;;;;;22.60;75.72;96199.84;2067143;28;20069;-57
2023/08/23 01:49:22;;;;;;;8.68;7.03;;;;;;;22.59;75.89;96196.38;2067263;28;20051;-58
2023/08/23 01:50:23;;;;;;;8.93;7.20;;;;;;;22.60;74.86;96187.44;2067479;28;20099;-58
2023/08/23 01:51:25;;;;;;;11.43;6.70;;;;;;;22.61;75.07;96191.78;2058318;28;20407;-58
2023/08/23 01:52:26;;;;;;;11.38;7.25;;;;;;;22.53;75.58;96193.44;2058767;28;20057;-58
2023/08/23 01:53:27;;;;;;;9.52;7.28;;;;;;;22.55;75.17;96192.31;2067001;28;20057;-58
2023/08/23 01:54:28;;;;;;;9.18;7.38;;;;;;;22.57;75.64;96193.03;2066933;28;20069;-58
2023/08/23 01:55:29;;;;;;;9.15;6.38;;;;;;;22.49;75.11;96190.25;2058733;28;20065;-58
2023/08/23 01:56:32;;;;;;;8.90;6.60;;;;;;;22.44;75.58;96193.31;2058798;28;20062;-58
2023/08/23 01:57:33;;;;;;;8.60;6.88;;;;;;;22.37;75.46;96183.44;2058253;28;20070;-58
2023/08/23 01:58:34;;;;;;;10.10;7.38;;;;;;;22.30;76.02;96185.00;2050628;28;20495;-57
2023/08/23 01:59:36;;;;;;;9.15;6.90;;;;;;;22.22;76.33;96180.41;2050316;29;20062;-58
2023/08/23 02:00:37;;;;;;;9.82;6.80;;;;;;;22.23;76.55;96182.88;2059162;28;20055;-58
2023/08/23 02:01:38;;;;;;;9.90;7.57;;;;;;;22.20;76.61;96188.47;2066368;28;20062;-57
2023/08/23 02:02:40;;;;;;;11.18;6.85;;;;;;;22.17;77.03;96193.16;2067174;28;20055;-57
2023/08/23 02:03:41;;;;;;;11.50;6.93;;;;;;;22.15;77.00;96188.00;2057792;28;20051;-57
2023/08/23 02:04:42;;;;;;;11.77;7.15;;;;;;;22.13;76.66;96189.13;2050464;29;20057;-57
2023/08/23 02:05:43;;;;;;;9.60;6.78;;;;;;;22.15;77.15;96189.81;2058221;28;20054;-57
2023/08/23 02:06:44;;;;;;;9.65;7.53;;;;;;;22.12;76.43;96185.63;2058027;28;20050;-57
2023/08/23 02:07:45;;;;;;;13.60;7.25;;;;;;;22.07;76.47;96187.88;2058663;28;20055;-57
2023/08/23 02:08:46;;;;;;;13.70;7.40;;;;;;;22.06;76.63;96180.09;2066745;28;20050;-58
2023/08/23 02:09:47;;;;;;;14.52;7.95;;;;;;;22.03;76.70;96186.50;2066729;28;20054;-58
2023/08/23 02:10:48;;;;;;;11.75;7.47;;;;;;;22.06;76.52;96180.09;2058224;28;20179;-57
2023/08/23 02:11:49;;;;;;;9.73;7.18;;;;;;;22.02;77.27;96182.16;2058728;28;20065;-58
2023/08/23 02:12:51;;;;;;;12.60;7.47;;;;;;;21.97;77.35;96179.94;2050648;28;20066;-58
2023/08/23 02:13:52;;;;;;;11.15;7.20;;;;;;;21.94;77.22;96179.38;2058681;28;20431;-57
2023/08/23 02:14:53;;;;;;;12.40;6.93;;;;;;;21.91;77.29;96172.53;2050425;29;20063;-57
2023/08/23 02:15:54;;;;;;;9.95;6.45;;;;;;;21.89;76.80;96171.00;2050146;29;20059;-58
2023/08/23 02:16:55;;;;;;;10.43;6.65;;;;;;;21.92;77.10;96174.22;2058175;28;20423;-57
2023/08/23 02:17:56;;;;;;;10.65;6.72;;;;;;;21.93;77.13;96165.31;2066386;28;20050;-58
2023/08/23 02:18:57;;;;;;;11.32;7.75;;;;;;;21.98;77.04;96170.19;2067085;28;20054;-58
2023/08/23 02:19:58;;;;;;;11.60;7.38;;;;;;;22.01;76.94;96170.75;2067028;28;20073;-58
2023/08/23 02:20:59;;;;;;;8.32;7.53;;;;;;;22.04;76.63;96172.28;2066467;28;20129;-58
2023/08/23 02:22:00;;;;;;;9.48;7.72;;;;;;;22.03;76.32;96175.91;2066732;28;20053;-58
2023/08/23 02:23:02;;;;;;;12.77;7.13;;;;;;;21.98;76.73;96168.38;2067062;28;20402;-58
2023/08/23 02:24:03;;;;;;;9.38;7.25;;;;;;;21.98;75.82;96165.75;2066935;28;20054;-58
2023/08/23 02:25:04;;;;;;;10.57;7.70;;;;;;;21.96;76.25;96158.91;2067037;28;20079;-58
2023/08/23 02:26:05;;;;;;;11.48;7.18;;;;;;;21.92;76.22;96160.16;2066630;28;20054;-58
2023/08/23 02:27:06;;;;;;;11.32;7.68;;;;;;;21.95;76.72;96167.84;2058351;28;20078;-58
2023/08/23 02:28:07;;;;;;;9.75;6.85;;;;;;;21.97;75.79;96166.72;2057980;28;20054;-57
2023/08/23 02:29:09;;;;;;;10.73;7.60;;;;;;;21.98;76.31;96175.50;2058345;28;20070;-58
2023/08/23 02:30:10;;;;;;;11.57;7.47;;;;;;;22.02;76.41;96175.09;2067151;28;20073;-57
2023/08/23 02:31:11;;;;;;;10.52;7.72;;;;;;;22.00;76.03;96173.53;2057719;28;20495;-58
2023/08/23 02:32:13;;;;;;;10.43;6.70;;;;;;;22.01;75.71;96167.28;2049931;29;20055;-57
2023/08/23 02:33:14;;;;;;;15.27;7.88;;;;;;;22.05;75.92;96173.94;2050499;28;20055;-58
2023/08/23 02:34:15;;;;;;;10.95;7.50;;;;;;;22.07;75.45;96165.88;2058491;28;20042;-58
2023/08/23 02:35:16;;;;;;;9.80;7.57;;;;;;;22.10;75.34;96163.78;2058511;28;20054;-58
2023/08/23 02:36:18;;;;;;;10.63;7.47;;;;;;;22.07;75.53;96166.72;2050337;28;20542;-58
2023/08/23 02:37:19;;;;;;;12.80;7.63;;;;;;;22.14;74.62;96167.00;2057697;28;20065;-58
2023/08/23 02:38:20;;;;;;;9.45;7.05;;;;;;;22.15;74.90;96164.19;2066246;28;20058;-58
2023/08/23 02:39:22;;;;;;;10.75;7.60;;;;;;;22.18;74.87;96171.03;2066566;28;20061;-58
2023/08/23 02:40:23;;;;;;;9.45;7.00;;;;;;;22.14;74.99;96169.66;2066233;28;20506;-57
2023/08/23 02:41:24;;;;;;;11.00;7.20;;;;;;;22.10;75.49;96182.28;2066782;28;20054;-58
2023/08/23 02:42:26;;;;;;;10.65;6.65;;;;;;;22.13;74.93;96181.19;2066843;28;20077;-58
2023/08/23 02:43:27;;;;;;;9.15;7.35;;;;;;;22.15;75.29;96181.88;2057865;28;20058;-58
2023/08/23 02:44:29;;;;;;;9.68;7.63;;;;;;;22.16;75.29;96180.91;2058235;28;20062;-58
2023/08/23 02:45:30;;;;;;;10.20;7.50;;;;;;;22.19;75.19;96183.31;2057972;28;20542;-57
2023/08/23 02:46:31;;;;;;;9.80;7.25;;;;;;;22.22;75.22;96185.69;2067024;28;20065;-58
2023/08/23 02:47:32;;;;;;;13.10;7.93;;;;;;;22.22;74.91;96185.69;2066440;28;20065;-58
2023/08/23 02:48:33;;;;;;;11.10;7.32;;;;;;;22.23;74.85;96182.06;2066865;28;20061;-57
2023/08/23 02:49:34;;;;;;;10.88;7.40;;;;;;;22.23;74.89;96185.53;2058246;28;20103;-58
2023/08/23 02:50:36;;;;;;;11.35;8.32;;;;;;;22.23;75.02;96182.88;2058328;28;20059;-58
2023/08/23 02:51:37;;;;;;;8.63;7.47;;;;;;;22.16;75.35;96179.13;2066151;28;20074;-58
2023/08/23 02:52:38;;;;;;;11.77;6.90;;;;;;;22.16;75.56;96180.91;2057458;28;20077;-58
2023/08/23 02:53:39;;;;;;;12.70;7.45;;;;;;;22.13;76.00;96178.53;2057888;28;20055;-58
2023/08/23 02:54:40;;;;;;;8.73;7.40;;;;;;;22.14;75.46;96180.22;2066421;28;20058;-58
2023/08/23 02:55:41;;;;;;;11.13;7.35;;;;;;;22.11;75.69;96176.06;2066177;28;20398;-58
2023/08/23 02:56:42;;;;;;;9.35;7.38;;;;;;;22.13;75.49;96179.41;2066556;28;20050;-57
2023/08/23 02:57:43;;;;;;;9.95;7.53;;;;;;;22.07;76.17;96179.09;2066751;28;20050;-57
2023/08/23 02:58:45;;;;;;;10.48;7.68;;;;;;;22.02;76.30;96183.00;2058311;28;20432;-57
2023/08/23 02:59:46;;;;;;;8.98;7.00;;;;;;;21.96;76.86;96185.34;2058433;28;20082;-57
2023/08/23 03:00:47;;;;;;;11.25;7.65;;;;;;;21.97;76.74;96181.72;2057856;28;20062;-58
2023/08/23 03:01:48;;;;;;;9.27;7.80;;;;;;;21.96;76.69;96183.53;2057630;28;20058;-58
2023/08/23 03:02:49;;;;;;;9.20;7.40;;;;;;;21.91;76.65;96177.00;2066640;28;20058;-58
2023/08/23 03:03:50;;;;;;;12.90;8.10;;;;;;;21.93;76.74;96178.53;2066843;28;20051;-57
2023/08/23 03:04:52;;;;;;;12.10;7.65;;;;;;;21.91;76.60;96177.00;2066949;28;20057;-57
2023/08/23 03:05:57;;;;;;;11.77;7.60;;;;;;;21.88;77.29;96172.00;2057253;28;20491;-58
2023/08/23 03:06:58;;;;;;;10.93;7.47;;;;;;;21.89;76.75;96173.66;2058773;28;20050;-57
2023/08/23 03:08:00;;;;;;;14.85;8.38;;;;;;;21.89;76.83;96171.00;2058136;28;20054;-58
2023/08/23 03:09:01;;;;;;;12.30;7.88;;;;;;;21.87;76.96;96165.06;2058236;28;20487;-58
2023/08/23 03:10:03;;;;;;;12.38;7.72;;;;;;;21.75;77.91;96161.69;2066284;28;20050;-58
2023/08/23 03:11:04;;;;;;;12.65;7.80;;;;;;;21.73;77.68;96163.63;2057376;28;20423;-58
2023/08/23 03:12:06;;;;;;;13.52;7.53;;;;;;;21.76;77.90;96169.47;2057463;28;20055;-58
2023/08/23 03:13:07;;;;;;;12.32;7.30;;;;;;;21.77;77.71;96172.97;2066620;28;20410;-58
2023/08/23 03:14:08;;;;;;;9.65;7.45;;;;;;;21.76;77.83;96168.66;2066413;28;20042;-58
2023/08/23 03:15:09;;;;;;;9.75;7.45;;;;;;;21.77;78.02;96170.31;2066793;28;20051;-58
2023/08/23 03:16:10;;;;;;;12.77;7.43;;;;;;;21.79;77.78;96173.66;2066187;28;20055;-58
2023/08/23 03:17:11;;;;;;;11.10;7.57;;;;;;;21.73;77.58;96169.75;2058004;28;20051;-57
2023/08/23 03:18:13;;;;;;;11.02;7.60;;;;;;;21.72;78.04;96169.88;2058058;28;20062;-58
2023/08/23 03:19:14;;;;;;;10.30;7.82;;;;;;;21.72;77.56;96167.25;2057651;28;20062;-58
2023/08/23 03:20:15;;;;;;;10.38;7.85;;;;;;;21.71;78.07;96162.94;2057826;28;20062;-58
2023/08/23 03:21:16;;;;;;;13.63;7.88;;;;;;;21.67;77.71;96170.28;2050234;28;20047;-58
2023/08/23 03:22:17;;;;;;;12.38;7.57;;;;;;;21.65;77.99;96166.97;2049855;29;20055;-57
2023/08/23 03:23:19;;;;;;;13.18;7.88;;;;;;;21.61;78.66;96164.72;2057791;28;20055;-57
2023/08/23 03:24:21;;;;;;;11.07;7.75;;;;;;;21.59;78.76;96167.50;2066550;28;20077;-58
2023/08/23 03:25:22;;;;;;;12.35;7.97;;;;;;;21.57;78.94;96167.66;2057841;28;20058;-58
2023/08/23 03:26:25;;;;;;;10.82;8.15;;;;;;;21.55;78.98;96166.94;2049526;28;20055;-58
2023/08/23 03:27:26;;;;;;;10.10;7.60;;;;;;;21.54;78.66;96164.41;2049946;29;20507;-58
2023/08/23 03:28:28;;;;;;;11.55;8.10;;;;;;;21.52;78.70;96161.94;2057863;28;20050;-58
2023/08/23 03:29:29;;;;;;;11.35;8.60;;;;;;;21.50;78.98;96157.75;2057959;28;20065;-57
2023/08/23 03:30:30;;;;;;;11.10;8.15;;;;;;;21.48;79.21;96163.16;2057926;28;20537;-58
2023/08/23 03:31:31;;;;;;;13.15;8.13;;;;;;;21.46;79.57;96157.16;2057870;28;20058;-58
2023/08/23 03:32:32;;;;;;;12.40;7.75;;;;;;;21.41;79.51;96162.06;2049902;28;20047;-58
2023/08/23 03:33:33;;;;;;;10.13;8.07;;;;;;;21.34;79.93;96159.06;2049490;29;20059;-58
2023/08/23 03:34:34;;;;;;;12.82;8.30;;;;;;;21.32;80.19;96163.63;2057735;28;20055;-58
2023/08/23 03:35:35;;;;;;;10.57;7.97;;;;;;;21.33;80.16;96162.69;2058110;28;20050;-58
2023/08/23 03:36:38;;;;;;;12.80;8.25;;;;;;;21.31;80.18;96166.44;2057651;28;20054;-58
2023/08/23 03:37:39;;;;;;;9.82;8.60;;;;;;;21.29;80.28;96166.56;2057959;28;20502;-58
2023/08/23 03:38:40;;;;;;;15.80;8.57;;;;;;;21.26;80.55;96166.00;2057832;28;20062;-58
2023/08/23 03:39:41;;;;;;;14.18;8.05;;;;;;;21.26;80.95;96166.81;2066061;28;20054;-58
2023/08/23 03:40:42;;;;;;;13.35;8.50;;;;;;;21.23;81.32;96167.09;2066159;28;20054;-58
2023/08/23 03:41:43;;;;;;;12.32;8.82;;;;;;;21.21;81.44;96163.75;2057311;28;20062;-58
2023/08/23 03:42:46;;;;;;;12.65;8.50;;;;;;;21.22;81.34;96168.06;2057042;28;20051;-58
2023/08/23 03:43:47;;;;;;;10.52;8.27;;;;;;;21.23;81.08;96171.56;2057583;28;20058;-58
2023/08/23 03:44:48;;;;;;;13.38;9.00;;;;;;;21.22;81.35;96164.56;2057067;28;20062;-58
2023/08/23 03:45:49;;;;;;;10.30;8.82;;;;;;;21.19;81.47;96176.25;2057248;28;20066;-58
2023/08/23 03:46:50;;;;;;;10.75;8.50;;;;;;;21.14;81.31;96163.47;2057773;28;20173;-58
2023/08/23 03:47:51;;;;;;;9.68;8.15;;;;;;;21.21;81.49;96168.19;2057786;28;20558;-58
2023/08/23 03:48:52;;;;;;;10.38;8.60;;;;;;;21.19;81.60;96175.41;2065712;28;20054;-58
2023/08/23 03:49:54;;;;;;;11.65;8.88;;;;;;;21.18;81.49;96169.31;2057496;28;20058;-59
2023/08/23 03:51:01;;;;;;;10.80;8.48;;;;;;;21.18;81.31;96169.31;2050172;28;20054;-58
2023/08/23 03:52:03;;;;;;;13.48;9.20;;;;;;;21.17;80.51;96175.56;2058458;28;20059;-58
2023/08/23 03:53:04;;;;;;;9.57;7.70;;;;;;;21.17;80.72;96174.72;2057855;28;20050;-58
2023/08/23 03:54:06;;;;;;;11.95;8.20;;;;;;;21.19;80.78;96178.06;2057650;28;20062;-57
2023/08/23 03:55:07;;;;;;;11.25;8.32;;;;;;;21.18;79.91;96179.88;2057675;28;20048;-58
2023/08/23 03:56:08;;;;;;;13.30;8.00;;;;;;;21.18;79.41;96177.22;2057300;28;20061;-57
2023/08/23 03:57:09;;;;;;;11.88;7.50;;;;;;;21.17;79.50;96178.22;2065296;28;20170;-57
2023/08/23 03:58:11;;;;;;;16.27;7.65;;;;;;;21.19;79.71;96178.88;2057533;28;20062;-59
2023/08/23 03:59:12;;;;;;;12.77;7.82;;;;;;;21.20;79.89;96177.94;2056992;28;20055;-56
2023/08/23 04:00:13;;;;;;;14.23;8.23;;;;;;;21.19;80.31;96184.16;2066233;28;20046;-57
2023/08/23 04:01:17;;;;;;;9.75;7.57;;;;;;;21.18;79.85;96179.03;2057155;28;20054;-58
2023/08/23 04:02:18;;;;;;;11.80;8.35;;;;;;;21.18;79.78;96185.16;2057820;28;20057;-57
2023/08/23 04:03:19;;;;;;;8.40;7.50;;;;;;;21.12;79.42;96177.75;2057467;28;20051;-57
2023/08/23 04:04:20;;;;;;;9.70;7.22;;;;;;;21.11;80.11;96176.91;2049481;29;20055;-57
2023/08/23 04:05:21;;;;;;;11.75;8.27;;;;;;;21.15;79.59;96191.53;2057675;28;20050;-58
2023/08/23 04:06:23;;;;;;;10.25;8.10;;;;;;;21.11;80.04;96189.28;2056960;28;20431;-58
2023/08/23 04:07:25;;;;;;;13.52;8.35;;;;;;;21.09;79.74;96184.16;2049584;28;20070;-58
2023/08/23 04:08:26;;;;;;;9.52;7.38;;;;;;;21.09;79.90;96183.28;2057451;28;20055;-58
2023/08/23 04:09:27;;;;;;;9.98;7.88;;;;;;;21.06;79.41;96187.06;2065442;28;20379;-57
2023/08/23 04:10:28;;;;;;;11.88;7.95;;;;;;;21.06;79.81;96191.47;2066231;28;20056;-57
2023/08/23 04:11:29;;;;;;;13.18;8.25;;;;;;;21.04;79.79;96186.34;2057539;28;20061;-58
2023/08/23 04:12:30;;;;;;;11.77;8.43;;;;;;;21.01;79.61;96191.03;2057299;28;20399;-57
2023/08/23 04:13:31;;;;;;;13.25;8.45;;;;;;;20.99;79.92;96193.00;2066063;28;20054;-57
2023/08/23 04:14:32;;;;;;;12.40;7.80;;;;;;;20.93;80.31;96187.28;2057521;28;20058;-58
2023/08/23 04:15:36;;;;;;;10.38;8.00;;;;;;;20.92;80.33;96190.84;2049858;28;20059;-57
2023/08/23 04:16:38;;;;;;;12.52;8.15;;;;;;;20.93;80.30;96197.00;2057697;28;20054;-58
2023/08/23 04:17:39;;;;;;;12.07;8.15;;;;;;;20.95;80.47;96194.22;2066290;28;20053;-59
2023/08/23 04:18:40;;;;;;;11.38;8.13;;;;;;;20.94;80.30;96196.03;2065684;28;20506;-59
2023/08/23 04:19:41;;;;;;;13.57;8.38;;;;;;;20.93;80.25;96192.56;2057540;28;20066;-59
2023/08/23 04:20:42;;;;;;;13.30;8.02;;;;;;;20.95;79.29;96196.84;2057573;28;20063;-58
2023/08/23 04:21:46;;;;;;;11.45;7.63;;;;;;;20.92;79.46;96196.13;2057487;28;20439;-60
2023/08/23 04:22:47;;;;;;;10.52;8.50;;;;;;;20.95;79.80;96189.75;2057317;28;20050;-57
2023/08/23 04:23:48;;;;;;;13.80;8.55;;;;;;;21.00;79.65;96200.75;2057589;28;20062;-58
2023/08/23 04:24:51;;;;;;;12.15;7.55;;;;;;;21.03;79.48;96207.59;2057345;28;20050;-58
2023/08/23 04:25:54;;;;;;;13.85;7.50;;;;;;;21.07;78.69;96198.44;2057391;28;20059;-57
2023/08/23 04:26:55;;;;;;;9.85;7.95;;;;;;;21.06;78.03;96199.41;2058174;28;20051;-57
2023/08/23 04:27:56;;;;;;;12.13;8.35;;;;;;;21.06;78.63;96199.41;2056849;28;20055;-57
2023/08/23 04:28:57;;;;;;;11.70;8.40;;;;;;;21.03;78.86;96207.59;2057355;28;20062;-57
2023/08/23 04:29:58;;;;;;;12.85;8.73;;;;;;;21.00;78.62;96203.41;2057456;28;20062;-58
2023/08/23 04:31:01;;;;;;;9.93;7.88;;;;;;;21.05;78.86;96208.31;2064796;28;20426;-58
2023/08/23 04:32:12;;;;;;;16.95;8.30;;;;;;;21.14;78.65;96210.13;2057404;28;20404;-57
2023/08/23 04:33:13;;;;;;;9.18;7.88;;;;;;;21.17;78.53;96214.31;2057711;28;20055;-58
2023/08/23 04:34:16;;;;;;;10.48;7.97;;;;;;;21.14;78.59;96210.13;2057320;28;20058;-57
2023/08/23 04:35:17;;;;;;;10.52;8.18;;;;;;;21.23;78.39;96216.44;2057330;28;20463;-58
2023/08/23 04:36:19;;;;;;;11.05;8.20;;;;;;;21.26;78.05;96213.53;2057364;28;20205;-57
2023/08/23 04:37:20;;;;;;;12.07;7.75;;;;;;;21.25;78.06;96218.00;2057320;28;20065;-58
2023/08/23 04:38:21;;;;;;;10.82;7.65;;;;;;;21.26;78.41;96221.47;2057085;28;20047;-58
2023/08/23 04:39:22;;;;;;;13.30;8.13;;;;;;;21.23;78.63;96217.28;2057254;28;20054;-58
2023/08/23 04:40:24;;;;;;;9.63;7.50;;;;;;;21.22;78.52;96212.13;2048893;29;20058;-58
2023/08/23 04:41:25;;;;;;;11.02;8.32;;;;;;;21.19;78.27;96207.09;2057299;28;20062;-58
2023/08/23 04:42:30;;;;;;;11.70;8.57;;;;;;;21.23;77.81;96205.88;2065408;28;20057;-58
2023/08/23 04:43:32;;;;;;;13.20;8.57;;;;;;;21.22;78.22;96212.94;2057236;28;20058;-57
2023/08/23 04:44:35;;;;;;;14.85;8.68;;;;;;;21.22;78.13;96207.66;2049484;28;20480;-57
2023/08/23 04:45:37;;;;;;;14.50;8.45;;;;;;;21.18;78.16;96203.63;2049461;28;20070;-58
2023/08/23 04:46:38;;;;;;;12.27;8.02;;;;;;;21.19;78.30;96199.19;2057549;28;20063;-57
2023/08/23 04:47:39;;;;;;;11.73;8.35;;;;;;;21.15;78.46;96201.25;2057171;28;20066;-58
2023/08/23 04:48:41;;;;;;;15.40;8.73;;;;;;;21.13;77.82;96198.75;2049049;28;20511;-58
2023/08/23 04:49:43;;;;;;;13.90;8.40;;;;;;;21.14;77.70;96195.16;2057208;28;20059;-58